Time;durP1;ratioP1;P1;durP2;ratioP2;P2;SDS_P1;SDS_P2;PMS_P1;PMS_P2;Temp;Humidity;BMP_temperature;BMP_pressure;BME280_temperature;BME280_humidity;BME280_pressure;Samples;Min_cycle;Max_cycle;Signal;HPM_P1;HPM_P2
2023/04/23 00:00:25;;;;;;;12.63;5.37;;;;;;;7.64;98.73;100695.56;5073389;28;20108;-90
2023/04/23 00:02:52;;;;;;;14.17;5.90;;;;;;;7.60;99.46;100692.09;5073468;28;20059;-89
2023/04/23 00:05:19;;;;;;;13.07;5.93;;;;;;;7.57;100.00;100682.66;5072981;28;20055;-89
2023/04/23 00:07:44;;;;;;;17.33;7.40;;;;;;;7.54;100.00;100684.41;5073215;28;20111;-89
2023/04/23 00:10:10;;;;;;;16.23;7.30;;;;;;;7.51;100.00;100669.78;5073402;28;20422;-90
2023/04/23 00:12:36;;;;;;;14.03;6.47;;;;;;;7.53;99.45;100680.09;5072364;28;20021;-89
2023/04/23 00:15:03;;;;;;;14.00;5.93;;;;;;;7.51;99.41;100674.97;5055653;28;20025;-90
2023/04/23 00:17:28;;;;;;;11.52;5.50;;;;;;;7.51;99.58;100671.50;5052722;28;20025;-88
2023/04/23 00:19:53;;;;;;;11.83;5.47;;;;;;;7.50;99.44;100670.66;5053028;28;20086;-90
2023/04/23 00:22:19;;;;;;;13.53;6.13;;;;;;;7.48;98.90;100667.22;5084278;22;20059;-89
2023/04/23 00:24:45;;;;;;;15.30;6.43;;;;;;;7.47;98.60;100670.66;5092944;28;20028;-89
2023/04/23 00:27:11;;;;;;;16.23;7.07;;;;;;;7.48;98.93;100668.97;5096835;28;20028;-89
2023/04/23 00:29:36;;;;;;;16.05;7.65;;;;;;;7.48;98.91;100661.22;5096589;28;20282;-89
2023/04/23 00:32:02;;;;;;;14.30;6.40;;;;;;;7.49;98.83;100662.91;5095907;28;20097;-89
2023/04/23 00:34:27;;;;;;;18.73;8.47;;;;;;;7.50;98.67;100662.91;5096328;28;20070;-89
2023/04/23 00:36:53;;;;;;;18.40;9.07;;;;;;;7.50;98.24;100673.25;5096830;28;20028;-89
2023/04/23 00:39:18;;;;;;;26.30;14.00;;;;;;;7.55;97.92;100666.31;5096275;28;20375;-89
2023/04/23 00:41:44;;;;;;;24.02;12.60;;;;;;;7.50;98.27;100662.91;5096490;28;20026;-90
2023/04/23 00:44:09;;;;;;;21.77;11.23;;;;;;;7.48;99.06;100659.47;5096405;28;20042;-89
2023/04/23 00:46:35;;;;;;;21.85;10.77;;;;;;;7.46;99.26;100655.19;5096157;28;20051;-89
2023/04/23 00:49:01;;;;;;;19.90;9.40;;;;;;;7.44;98.66;100657.75;5096426;28;20032;-89
2023/04/23 00:51:27;;;;;;;19.90;9.50;;;;;;;7.39;98.46;100636.28;5096238;28;20031;-89
2023/04/23 00:53:53;;;;;;;19.67;9.50;;;;;;;7.39;98.87;100649.19;5095841;28;20065;-89
2023/04/23 00:56:20;;;;;;;21.35;10.40;;;;;;;7.42;98.34;100655.19;5096600;28;20032;-89
2023/04/23 00:58:45;;;;;;;21.13;10.07;;;;;;;7.37;98.61;100640.59;5096478;28;20027;-90
2023/04/23 01:01:12;;;;;;;21.38;10.55;;;;;;;7.37;98.36;100644.06;5096114;28;20364;-89
2023/04/23 01:03:40;;;;;;;20.48;10.07;;;;;;;7.33;100.00;100638.88;5095785;28;20024;-90
2023/04/23 01:06:05;;;;;;;19.67;9.65;;;;;;;7.28;99.09;100638.06;5096437;28;20102;-90
2023/04/23 01:08:32;;;;;;;19.17;9.27;;;;;;;7.25;99.02;100631.22;5095513;28;20028;-89
2023/04/23 01:10:58;;;;;;;20.08;9.70;;;;;;;7.27;99.23;100629.44;5095995;28;20024;-89
2023/04/23 01:13:28;;;;;;;19.65;9.80;;;;;;;7.25;99.12;100621.72;5095625;28;20035;-90
2023/04/23 01:15:53;;;;;;;20.98;10.45;;;;;;;7.30;99.49;100632.03;5095560;28;20027;-89
2023/04/23 01:18:20;;;;;;;20.37;9.87;;;;;;;7.29;99.23;100622.56;5095781;28;20024;-89
2023/04/23 01:20:45;;;;;;;19.23;9.23;;;;;;;7.31;99.53;100632.91;5096079;28;20027;-89
2023/04/23 01:23:11;;;;;;;18.17;8.70;;;;;;;7.31;99.16;100618.25;5095305;28;20400;-89
2023/04/23 01:25:36;;;;;;;21.13;9.90;;;;;;;7.29;99.65;100616.56;5095774;28;20114;-89
2023/04/23 01:28:02;;;;;;;18.73;9.20;;;;;;;7.27;100.00;100616.53;5095416;28;20024;-89
2023/04/23 01:30:30;;;;;;;21.17;10.10;;;;;;;7.26;99.45;100614.84;5095142;28;20056;-89
2023/04/23 01:32:56;;;;;;;19.98;9.65;;;;;;;7.25;100.00;100618.31;5095874;28;20581;-89
2023/04/23 01:35:22;;;;;;;19.10;9.10;;;;;;;7.23;100.00;100622.59;5095074;28;20020;-89
2023/04/23 01:37:50;;;;;;;18.10;8.77;;;;;;;7.21;100.00;100612.28;5094536;28;20315;-89
2023/04/23 01:40:16;;;;;;;20.65;9.73;;;;;;;7.16;99.98;100600.25;5095080;28;20028;-89
2023/04/23 01:42:44;;;;;;;20.53;10.27;;;;;;;7.20;99.70;100622.63;5094685;28;20070;-89
2023/04/23 01:45:10;;;;;;;19.58;9.48;;;;;;;7.17;100.00;100614.88;5095490;28;20446;-89
2023/04/23 01:47:35;;;;;;;20.43;10.70;;;;;;;7.17;99.86;100608.00;5095005;28;20052;-89
2023/04/23 01:50:02;;;;;;;21.40;11.00;;;;;;;7.16;99.77;100610.56;5094773;28;20020;-89
2023/04/23 01:52:28;;;;;;;;;;;;;;;7.20;100.00;100613.16;5095493;28;20021;-89
2023/04/23 01:54:53;;;;;;;21.73;11.27;;;;;;;7.13;100.00;100611.47;5094789;28;19912;-90
2023/04/23 01:57:25;;;;;;;21.43;11.13;;;;;;;7.15;100.00;100611.47;5095097;28;20019;-89
2023/04/23 01:59:51;;;;;;;21.77;12.43;;;;;;;7.18;100.00;100612.31;5095130;28;20028;-89
2023/04/23 02:02:16;;;;;;;22.07;12.10;;;;;;;7.28;99.64;100612.25;5095095;28;20105;-89
2023/04/23 02:04:44;;;;;;;22.42;11.80;;;;;;;7.22;100.00;100616.56;5094263;28;20028;-89
2023/04/23 02:07:09;;;;;;;21.65;12.15;;;;;;;7.24;100.00;100612.25;5094502;28;20044;-89
2023/04/23 02:09:35;;;;;;;22.90;12.37;;;;;;;7.25;100.00;100613.97;5094405;28;20066;-89
2023/04/23 02:12:00;;;;;;;21.77;12.53;;;;;;;7.24;100.00;100608.84;5094862;28;20089;-89
2023/04/23 02:14:26;;;;;;;20.40;10.53;;;;;;;7.20;100.00;100594.22;5094327;28;20085;-89
2023/04/23 02:16:51;;;;;;;18.52;9.25;;;;;;;7.23;100.00;100601.97;5094333;28;20073;-89
2023/04/23 02:19:17;;;;;;;17.00;8.47;;;;;;;7.20;100.00;100608.00;5094596;28;20024;-89
2023/04/23 02:21:42;;;;;;;16.10;7.70;;;;;;;7.17;100.00;100597.69;5094504;28;20396;-90
2023/04/23 02:24:07;;;;;;;15.77;7.50;;;;;;;7.15;100.00;100591.66;5094081;28;20027;-88
2023/04/23 02:26:32;;;;;;;14.87;7.00;;;;;;;7.13;100.00;100587.38;5094444;28;20099;-89
2023/04/23 02:28:58;;;;;;;14.70;6.70;;;;;;;7.14;100.00;100597.69;5094694;28;20044;-89
2023/04/23 02:31:23;;;;;;;16.03;7.57;;;;;;;7.16;100.00;100595.97;5094411;28;20039;-89
2023/04/23 02:33:49;;;;;;;14.40;6.97;;;;;;;7.17;100.00;100599.38;5094284;28;20107;-89
2023/04/23 02:36:14;;;;;;;13.27;6.50;;;;;;;7.17;100.00;100595.09;5094494;28;20028;-90
2023/04/23 02:38:44;;;;;;;14.07;7.10;;;;;;;7.18;100.00;100601.09;5093978;28;20066;-90
2023/04/23 02:41:10;;;;;;;14.75;6.65;;;;;;;7.18;100.00;100594.25;5094297;28;20050;-89
2023/04/23 02:43:36;;;;;;;13.07;6.45;;;;;;;7.19;100.00;100598.53;5094207;28;20104;-89
2023/04/23 02:46:06;;;;;;;12.70;6.20;;;;;;;7.19;100.00;100589.91;5094025;28;20118;-90
2023/04/23 02:48:37;;;;;;;11.82;5.93;;;;;;;7.17;100.00;100592.53;5093603;28;20024;-89
2023/04/23 02:51:03;;;;;;;9.48;5.10;;;;;;;7.15;100.00;100588.25;5094451;28;20043;-89
2023/04/23 02:53:29;;;;;;;10.27;5.30;;;;;;;7.07;100.00;100580.53;5094014;28;20413;-89
2023/04/23 02:55:55;;;;;;;10.88;5.30;;;;;;;7.11;100.00;100592.53;5094264;28;20022;-90
2023/04/23 02:58:40;;;;;;;10.50;4.97;;;;;;;7.11;100.00;100589.97;5094070;28;20463;-89
2023/04/23 03:01:06;;;;;;;9.93;4.97;;;;;;;7.03;100.00;100582.28;5093224;28;20040;-89
2023/04/23 03:03:32;;;;;;;9.50;4.80;;;;;;;7.08;100.00;100595.16;5093941;28;20776;-89
2023/04/23 03:05:59;;;;;;;9.80;5.00;;;;;;;7.02;100.00;100582.25;5093936;28;20543;-89
2023/04/23 03:08:25;;;;;;;8.77;4.60;;;;;;;7.10;100.00;100588.25;5093292;28;20016;-88
2023/04/23 03:10:50;;;;;;;9.20;4.53;;;;;;;7.11;100.00;100588.25;5093991;28;20490;-90
2023/04/23 03:13:15;;;;;;;8.53;4.60;;;;;;;7.04;100.00;100565.91;5093408;28;20032;-89
2023/04/23 03:15:42;;;;;;;10.73;5.53;;;;;;;7.15;100.00;100586.50;5093471;28;20045;-89
2023/04/23 03:18:07;;;;;;;9.20;4.95;;;;;;;7.15;100.00;100576.19;5093571;28;20032;-89
2023/04/23 03:20:42;;;;;;;9.77;5.07;;;;;;;7.17;100.00;100577.03;5092940;28;20024;-89
2023/04/23 03:23:08;;;;;;;8.98;5.00;;;;;;;7.05;100.00;100552.13;5093437;28;20032;-89
2023/04/23 03:25:33;;;;;;;11.07;5.57;;;;;;;7.15;100.00;100571.03;5093457;28;20085;-89
2023/04/23 03:27:59;;;;;;;11.40;5.53;;;;;;;7.14;100.00;100574.47;5093483;28;20062;-89
2023/04/23 03:30:25;;;;;;;11.60;6.27;;;;;;;7.14;100.00;100568.47;5093650;28;20103;-89
2023/04/23 03:32:52;;;;;;;11.60;6.05;;;;;;;7.14;100.00;100571.88;5093784;28;20024;-89
2023/04/23 03:35:17;;;;;;;11.45;5.93;;;;;;;7.04;100.00;100558.16;5093453;28;20020;-89
2023/04/23 03:37:42;;;;;;;10.73;5.43;;;;;;;7.15;100.00;100572.75;5093078;28;20373;-89
2023/04/23 03:40:08;;;;;;;9.18;4.75;;;;;;;7.15;100.00;100567.59;5093482;28;20020;-89
2023/04/23 03:42:34;;;;;;;9.07;5.00;;;;;;;7.19;100.00;100569.28;5092841;28;20055;-89
2023/04/23 03:45:00;;;;;;;8.95;4.88;;;;;;;7.22;100.00;100569.25;5093397;28;20499;-89
2023/04/23 03:47:26;;;;;;;8.87;4.80;;;;;;;7.23;100.00;100560.66;5092723;28;20028;-89
2023/04/23 03:49:51;;;;;;;8.73;4.57;;;;;;;7.25;100.00;100570.09;5093405;28;20023;-89
2023/04/23 03:52:17;;;;;;;9.00;4.97;;;;;;;7.25;100.00;100566.66;5093198;28;20113;-89
2023/04/23 03:54:42;;;;;;;8.87;4.73;;;;;;;7.25;100.00;100561.50;5093577;28;20062;-89
2023/04/23 03:57:08;;;;;;;8.10;4.60;;;;;;;7.29;100.00;100563.19;5093444;28;20032;-88
2023/04/23 03:59:33;;;;;;;8.50;4.70;;;;;;;7.31;100.00;100565.78;5092919;28;20095;-89
2023/04/23 04:01:58;;;;;;;7.67;4.57;;;;;;;7.31;100.00;100563.19;5097582;28;20050;-89
2023/04/23 04:04:24;;;;;;;9.50;4.90;;;;;;;7.34;100.00;100565.75;5096869;28;20016;-89
2023/04/23 04:06:50;;;;;;;8.93;4.63;;;;;;;7.39;100.00;100571.75;5097372;28;20027;-89
2023/04/23 04:09:15;;;;;;;9.38;4.88;;;;;;;7.40;100.00;100574.31;5096838;28;20040;-89
2023/04/23 04:11:47;;;;;;;9.67;5.40;;;;;;;7.47;100.00;100580.28;5096449;28;20095;-89
2023/04/23 04:14:13;;;;;;;8.82;4.68;;;;;;;7.40;100.00;100557.97;5097065;28;20430;-89
2023/04/23 04:16:38;;;;;;;9.40;4.93;;;;;;;7.53;100.00;100575.09;5096671;28;20020;-88
2023/04/23 04:19:03;;;;;;;10.27;5.22;;;;;;;7.55;100.00;100572.50;5096686;28;20049;-89
2023/04/23 04:21:29;;;;;;;9.03;4.80;;;;;;;7.58;100.00;100577.66;5096616;28;20047;-90
2023/04/23 04:23:55;;;;;;;9.33;4.97;;;;;;;7.60;100.00;100575.03;5096658;28;20020;-89
2023/04/23 04:26:20;;;;;;;8.80;4.70;;;;;;;7.62;100.00;100583.63;5096488;28;20055;-88
2023/04/23 04:29:00;;;;;;;8.13;4.53;;;;;;;7.50;100.00;100569.06;5096638;28;20035;-89
2023/04/23 04:31:26;;;;;;;7.90;4.30;;;;;;;7.52;100.00;100568.22;5074163;28;20040;-89
2023/04/23 04:33:52;;;;;;;11.75;5.80;;;;;;;7.60;100.00;100575.88;5076463;28;20023;-89
2023/04/23 04:36:18;;;;;;;10.83;5.50;;;;;;;7.65;100.00;100575.88;5076607;28;20028;-89
2023/04/23 04:38:43;;;;;;;10.63;5.00;;;;;;;7.66;100.00;100583.59;5075905;28;20032;-89
2023/04/23 04:41:10;;;;;;;7.87;4.60;;;;;;;7.69;100.00;100581.00;5076159;28;20116;-89
2023/04/23 04:43:36;;;;;;;8.13;4.47;;;;;;;7.72;100.00;100577.53;5075978;28;20025;-89
2023/04/23 04:46:02;;;;;;;7.60;4.18;;;;;;;7.74;100.00;100580.97;5086736;28;20111;-90
2023/04/23 04:51:16;;;;;;;6.40;3.70;;;;;;;7.74;100.00;100575.81;5095286;28;20047;-89
2023/04/23 04:53:42;;;;;;;6.17;3.90;;;;;;;7.71;100.00;100575.81;5095987;28;20028;-89
2023/04/23 04:56:08;;;;;;;5.90;3.70;;;;;;;7.72;100.00;100574.94;5096414;28;20028;-90
2023/04/23 04:58:33;;;;;;;5.77;3.60;;;;;;;7.67;100.00;100567.25;5095999;28;20020;-90
2023/04/23 05:01:12;;;;;;;5.00;3.17;;;;;;;7.61;100.00;100556.09;5096166;28;20020;-89
2023/04/23 05:03:38;;;;;;;5.90;3.67;;;;;;;7.66;100.00;100574.97;5096200;28;20056;-89
2023/04/23 05:06:03;;;;;;;7.17;3.80;;;;;;;7.60;100.00;100572.47;5095955;28;20154;-89
2023/04/23 05:08:28;;;;;;;6.75;3.70;;;;;;;7.66;100.00;100586.19;5096216;28;20024;-89
2023/04/23 05:10:54;;;;;;;5.47;3.28;;;;;;;7.64;100.00;100581.91;5095533;28;20030;-89
2023/04/23 05:13:19;;;;;;;4.63;3.00;;;;;;;7.66;100.00;100587.91;5095738;28;20495;-89
2023/04/23 05:15:45;;;;;;;5.17;3.40;;;;;;;7.65;100.00;100575.88;5095649;28;20054;-89
2023/04/23 05:18:10;;;;;;;4.57;3.10;;;;;;;7.63;100.00;100575.03;5095709;28;20069;-89
2023/04/23 05:20:36;;;;;;;5.77;3.47;;;;;;;7.65;100.00;100578.47;5095855;28;20024;-89
2023/04/23 05:23:02;;;;;;;5.50;3.40;;;;;;;7.70;100.00;100585.31;5095387;28;20036;-89
2023/04/23 05:25:30;;;;;;;5.60;3.50;;;;;;;7.74;100.00;100580.97;5095254;28;20040;-89
2023/04/23 05:27:56;;;;;;;6.90;3.90;;;;;;;7.79;100.00;100581.78;5094854;28;20127;-88
2023/04/23 05:30:22;;;;;;;6.23;3.50;;;;;;;7.85;100.00;100586.91;5094980;28;20016;-88
2023/04/23 05:33:06;;;;;;;6.33;3.83;;;;;;;7.86;100.00;100578.28;5095174;28;20024;-90
2023/04/23 05:35:31;;;;;;;6.18;3.60;;;;;;;7.98;100.00;100579.06;5094129;28;20082;-88
2023/04/23 05:37:57;;;;;;;5.93;3.63;;;;;;;8.05;100.00;100585.88;5095863;28;20372;-91
2023/04/23 05:40:43;;;;;;;7.88;4.25;;;;;;;8.10;100.00;100589.28;5095730;28;20104;-90
2023/04/23 05:43:11;;;;;;;9.23;4.67;;;;;;;8.06;100.00;100569.50;5094731;28;20060;-90
2023/04/23 05:45:36;;;;;;;9.02;4.88;;;;;;;8.12;100.00;100564.25;5095164;28;20036;-91
2023/04/23 05:48:02;;;;;;;7.77;4.30;;;;;;;8.24;100.00;100577.94;5095537;28;20460;-91
2023/04/23 05:50:37;;;;;;;7.87;4.47;;;;;;;8.26;100.00;100565.84;5094660;28;20016;-91
2023/04/23 05:53:11;;;;;;;10.40;5.38;;;;;;;8.30;100.00;100559.78;5095066;28;20028;-90
2023/04/23 05:55:43;;;;;;;14.02;6.80;;;;;;;8.44;100.00;100559.63;5095083;28;20012;-90
2023/04/23 05:58:24;;;;;;;12.02;6.25;;;;;;;8.53;100.00;100580.25;5094837;28;20016;-90
2023/04/23 06:00:56;;;;;;;11.20;5.88;;;;;;;8.62;100.00;100572.38;5094977;28;20035;-90
2023/04/23 06:03:21;;;;;;;13.00;6.43;;;;;;;8.64;100.00;100562.03;5094513;28;20447;-88
2023/04/23 06:05:47;;;;;;;12.13;6.20;;;;;;;8.67;100.00;100564.56;5095201;28;20066;-90
2023/04/23 06:08:12;;;;;;;10.50;5.57;;;;;;;8.78;100.00;100572.22;5095034;28;20020;-90
2023/04/23 06:11:00;;;;;;;11.03;5.73;;;;;;;8.80;100.00;100578.22;5094358;28;20028;-89
2023/04/23 06:13:39;;;;;;;10.63;5.75;;;;;;;8.76;100.00;100566.19;5095091;28;20081;-90
2023/04/23 06:16:05;;;;;;;12.20;6.10;;;;;;;8.85;100.00;100566.06;5095017;28;20024;-90
2023/04/23 06:18:31;;;;;;;13.43;7.28;;;;;;;8.88;100.00;100557.44;5074128;28;20124;-91
2023/04/23 06:20:57;;;;;;;13.57;7.20;;;;;;;9.03;100.00;100564.13;5074256;28;20052;-90
2023/04/23 06:23:23;;;;;;;13.93;7.32;;;;;;;9.01;100.00;100551.19;5074050;28;20028;-90
2023/04/23 06:25:48;;;;;;;13.23;6.67;;;;;;;9.11;100.00;100555.41;5074012;28;20028;-90
2023/04/23 06:28:13;;;;;;;11.60;6.27;;;;;;;9.17;100.00;100553.59;5074147;28;20032;-90
2023/04/23 06:30:39;;;;;;;11.40;6.40;;;;;;;9.21;100.00;100539.72;5073527;28;20052;-90
2023/04/23 06:33:04;;;;;;;13.83;7.00;;;;;;;9.30;100.00;100543.88;5073699;28;20101;-90
2023/04/23 06:35:30;;;;;;;14.60;7.50;;;;;;;9.39;100.00;100544.63;5073607;28;20020;-90
2023/04/23 06:37:55;;;;;;;13.40;7.13;;;;;;;9.45;100.00;100542.84;5073374;28;20496;-90
2023/04/23 06:40:20;;;;;;;10.90;6.10;;;;;;;9.49;100.00;100540.16;5073930;28;20024;-89
2023/04/23 06:42:46;;;;;;;10.63;6.13;;;;;;;9.58;100.00;100533.97;5073440;28;20056;-89
2023/04/23 06:45:12;;;;;;;12.30;6.57;;;;;;;9.65;100.00;100542.50;5088137;28;20115;-90
2023/04/23 06:47:52;;;;;;;10.40;6.07;;;;;;;9.72;100.00;100544.97;5093794;28;20475;-89
2023/04/23 06:50:18;;;;;;;10.32;5.68;;;;;;;9.73;100.00;100525.94;5093570;28;20024;-87
2023/04/23 06:52:43;;;;;;;9.10;5.30;;;;;;;9.82;100.00;100530.13;5093119;28;20127;-87
2023/04/23 06:55:08;;;;;;;13.17;7.20;;;;;;;10.02;100.00;100540.13;5094026;28;20068;-86
2023/04/23 06:57:34;;;;;;;13.30;6.73;;;;;;;10.10;100.00;100534.81;5092926;28;20106;-91
2023/04/23 07:00:00;;;;;;;11.07;5.80;;;;;;;10.89;100.00;100532.41;5094048;28;20024;-86
2023/04/23 07:02:25;;;;;;;13.60;7.00;;;;;;;13.20;100.00;100535.09;5092841;28;20360;-89
2023/04/23 07:04:51;;;;;;;8.67;5.23;;;;;;;15.79;100.00;100535.38;5093531;28;20035;-87
2023/04/23 07:07:22;;;;;;;9.80;5.33;;;;;;;17.91;86.13;100528.25;5090412;28;20032;-84
2023/04/23 07:09:47;;;;;;;9.13;5.05;;;;;;;19.44;86.39;100532.38;5093396;28;20460;-89
2023/04/23 07:12:12;;;;;;;7.87;4.87;;;;;;;20.39;72.01;100518.91;5092920;28;20027;-93
2023/04/23 07:14:38;;;;;;;10.00;5.40;;;;;;;20.40;71.47;100526.72;5092359;28;20028;-91
2023/04/23 07:17:03;;;;;;;8.03;4.67;;;;;;;20.03;71.96;100529.00;5094203;28;20047;-91
2023/04/23 07:19:37;;;;;;;6.27;4.00;;;;;;;19.27;72.98;100522.81;5090902;28;20115;-90
2023/04/23 07:22:03;;;;;;;6.45;3.72;;;;;;;18.50;74.90;100533.13;5072770;28;20120;-88
2023/04/23 07:24:28;;;;;;;7.13;4.43;;;;;;;17.57;76.20;100532.59;5072928;28;20075;-88
2023/04/23 07:26:54;;;;;;;7.00;3.93;;;;;;;16.65;77.00;100531.63;5072656;28;20028;-89
2023/04/23 07:29:19;;;;;;;5.60;3.40;;;;;;;15.93;78.00;100526.97;5073456;28;20103;-89
2023/04/23 07:31:45;;;;;;;7.53;4.57;;;;;;;15.27;79.59;100527.00;5073208;28;20048;-89
2023/04/23 07:34:10;;;;;;;7.30;4.63;;;;;;;14.72;79.44;100518.69;5072745;28;20086;-89
2023/04/23 07:36:36;;;;;;;7.17;4.40;;;;;;;14.35;83.82;100513.06;5076508;28;20033;-89
2023/04/23 07:39:01;;;;;;;5.43;3.83;;;;;;;14.11;85.06;100523.47;5085380;28;20028;-88
2023/04/23 07:41:26;;;;;;;6.53;4.07;;;;;;;13.93;85.06;100522.34;5096806;28;20027;-88
2023/04/23 07:43:52;;;;;;;4.83;3.37;;;;;;;13.81;86.75;100520.16;5097224;28;20110;-87
2023/04/23 07:46:17;;;;;;;7.77;4.17;;;;;;;13.71;87.97;100511.78;5096593;28;20031;-83
2023/04/23 07:48:42;;;;;;;6.90;3.90;;;;;;;13.61;88.47;100516.47;5095824;28;20027;-89
2023/04/23 07:51:08;;;;;;;5.43;3.50;;;;;;;13.56;89.42;100503.56;5094092;28;20016;-86
2023/04/23 07:53:34;;;;;;;4.33;3.00;;;;;;;13.62;89.46;100510.34;5096065;28;20020;-88
2023/04/23 07:55:59;;;;;;;6.07;3.63;;;;;;;13.62;89.18;100505.13;5094334;28;20032;-88
2023/04/23 07:58:24;;;;;;;5.33;3.00;;;;;;;13.58;89.15;100501.75;5095507;28;20019;-87
2023/04/23 08:00:50;;;;;;;7.73;3.40;;;;;;;13.67;89.08;100504.97;5095791;28;20417;-87
2023/04/23 08:03:15;;;;;;;6.37;3.30;;;;;;;13.68;88.32;100496.25;5095199;28;20073;-86
2023/04/23 08:05:41;;;;;;;8.93;3.27;;;;;;;13.73;88.71;100500.41;5095918;28;20032;-87
2023/04/23 08:08:07;;;;;;;5.97;3.20;;;;;;;13.79;87.89;100496.72;5096240;28;20503;-87
2023/04/23 08:10:36;;;;;;;6.65;3.08;;;;;;;13.83;88.84;100492.25;5095556;28;20020;-87
2023/04/23 08:13:01;;;;;;;6.80;3.40;;;;;;;13.93;88.37;100496.25;5096474;28;20028;-88
2023/04/23 08:15:36;;;;;;;4.73;2.90;;;;;;;13.96;88.17;100480.47;5096040;28;20099;-87
2023/04/23 08:18:07;;;;;;;4.38;2.83;;;;;;;14.18;86.94;100503.22;5094964;28;20077;-87
2023/04/23 08:20:33;;;;;;;5.05;2.95;;;;;;;14.19;87.33;100486.63;5095663;28;20032;-87
2023/04/23 08:22:58;;;;;;;4.90;2.90;;;;;;;14.33;87.60;100486.16;5094127;28;20404;-86
2023/04/23 08:25:24;;;;;;;4.00;2.63;;;;;;;14.47;87.40;100493.47;5095626;28;20036;-87
2023/04/23 08:28:04;;;;;;;6.13;2.93;;;;;;;14.56;84.92;100484.44;5096090;28;20548;-87
2023/04/23 08:30:30;;;;;;;5.10;2.80;;;;;;;14.62;85.08;100481.59;5094771;28;20111;-87
2023/04/23 08:32:55;;;;;;;6.63;2.67;;;;;;;14.75;85.57;100475.00;5095163;28;20120;-86
2023/04/23 08:35:22;;;;;;;6.03;2.80;;;;;;;14.89;84.90;100482.31;5094749;28;20384;-86
2023/04/23 08:38:00;;;;;;;7.88;2.88;;;;;;;14.95;82.83;100481.22;5094479;28;20468;-87
2023/04/23 08:40:29;;;;;;;6.20;3.10;;;;;;;15.04;82.04;100485.22;5094709;28;20028;-88
2023/04/23 08:43:15;;;;;;;7.03;2.80;;;;;;;15.12;83.52;100483.16;5094757;28;20020;-87
2023/04/23 08:45:44;;;;;;;7.25;2.72;;;;;;;15.19;81.90;100475.94;5093512;28;20043;-88
2023/04/23 08:48:09;;;;;;;4.43;2.55;;;;;;;15.22;82.72;100474.03;5095535;28;20107;-87
2023/04/23 08:50:36;;;;;;;5.73;2.30;;;;;;;15.38;80.76;100476.03;5095537;28;20052;-87
2023/04/23 08:53:18;;;;;;;2.58;1.90;;;;;;;15.49;81.19;100475.56;5094420;28;20441;-87
2023/04/23 08:55:44;;;;;;;2.25;2.03;;;;;;;15.69;80.50;100469.50;5094902;28;20024;-87
2023/04/23 08:58:10;;;;;;;3.40;2.00;;;;;;;15.76;81.20;100476.19;5094319;28;20081;-86
2023/04/23 09:00:35;;;;;;;2.77;2.20;;;;;;;15.86;80.06;100479.28;5095240;28;20293;-87
2023/04/23 09:03:01;;;;;;;4.13;2.03;;;;;;;15.90;80.36;100457.31;5095318;28;20020;-87
2023/04/23 09:05:30;;;;;;;4.05;1.92;;;;;;;16.11;79.65;100481.66;5094457;28;20024;-88
2023/04/23 09:07:57;;;;;;;3.08;1.80;;;;;;;16.19;79.02;100470.84;5094991;28;20194;-88
2023/04/23 09:10:22;;;;;;;3.72;2.17;;;;;;;16.25;78.67;100482.81;5094968;28;20024;-87
2023/04/23 09:12:48;;;;;;;4.20;2.20;;;;;;;16.23;77.45;100467.19;5094482;28;20107;-86
2023/04/23 09:15:13;;;;;;;6.60;2.40;;;;;;;16.23;74.81;100476.78;5095238;28;20526;-87
2023/04/23 09:17:41;;;;;;;5.53;2.30;;;;;;;16.17;77.25;100476.16;5094710;28;20031;-87
2023/04/23 09:20:10;;;;;;;4.35;2.00;;;;;;;16.19;76.70;100466.50;5093432;28;20070;-87
2023/04/23 09:22:45;;;;;;;2.80;1.80;;;;;;;16.21;74.64;100474.25;5094616;28;20506;-86
2023/04/23 09:25:11;;;;;;;2.05;1.80;;;;;;;16.31;72.94;100474.72;5094970;28;20058;-89
2023/04/23 09:27:38;;;;;;;3.17;2.00;;;;;;;16.43;74.93;100474.16;5094507;28;20070;-88
2023/04/23 09:30:09;;;;;;;5.22;2.10;;;;;;;16.59;68.77;100465.56;5094947;28;20020;-90
2023/04/23 09:32:38;;;;;;;4.65;2.00;;;;;;;16.72;74.18;100460.63;5095074;28;20365;-88
2023/04/23 09:35:08;;;;;;;4.57;1.80;;;;;;;16.77;72.14;100462.09;5094705;28;20042;-91
2023/04/23 09:37:33;;;;;;;2.55;1.60;;;;;;;16.86;72.93;100465.19;5095238;28;20024;-90
2023/04/23 09:40:12;;;;;;;5.07;1.93;;;;;;;16.80;70.28;100458.47;5095696;28;20072;-89
2023/04/23 09:42:37;;;;;;;3.15;1.90;;;;;;;16.84;70.27;100452.16;5094327;28;20020;-88
2023/04/23 09:45:10;;;;;;;4.23;1.80;;;;;;;16.85;67.63;100458.25;5095030;28;20035;-91
2023/04/23 09:47:40;;;;;;;2.38;1.65;;;;;;;16.80;67.05;100450.63;5094625;28;20413;-91
2023/04/23 09:50:09;;;;;;;3.15;1.73;;;;;;;16.88;70.01;100450.25;5095166;28;20092;-91
2023/04/23 09:52:37;;;;;;;3.85;1.85;;;;;;;16.97;69.16;100455.09;5095175;28;20034;-90
2023/04/23 09:55:06;;;;;;;4.07;1.70;;;;;;;16.83;63.51;100451.31;5094555;28;20055;-90
2023/04/23 09:57:36;;;;;;;3.72;1.70;;;;;;;16.75;67.44;100444.72;5094335;28;20056;-90
2023/04/23 10:00:15;;;;;;;1.58;1.30;;;;;;;16.68;66.96;100442.41;5094955;28;20021;-91
2023/04/23 10:02:48;;;;;;;1.92;1.60;;;;;;;16.64;65.83;100442.63;5094231;28;20036;-91
2023/04/23 10:05:18;;;;;;;2.00;1.60;;;;;;;16.65;67.66;100444.34;5094803;28;20031;-90
2023/04/23 10:07:45;;;;;;;4.80;1.80;;;;;;;16.70;67.88;100436.25;5094803;28;20020;-91
2023/04/23 10:10:11;;;;;;;1.60;1.50;;;;;;;16.83;68.11;100432.97;5094183;28;20047;-89
2023/04/23 10:12:37;;;;;;;5.15;1.90;;;;;;;16.99;67.26;100437.50;5094269;28;20476;-90
2023/04/23 10:15:04;;;;;;;4.05;1.90;;;;;;;17.03;64.25;100446.91;5094507;28;20030;-89
2023/04/23 10:17:30;;;;;;;;;;;;;;;17.00;65.85;100441.81;5093563;28;20028;-90
2023/04/23 10:19:57;;;;;;;6.47;2.50;;;;;;;16.94;63.74;100429.00;5094538;28;19916;-90
2023/04/23 10:22:26;;;;;;;3.17;1.90;;;;;;;16.94;66.42;100436.88;5093727;28;20040;-89
2023/04/23 10:24:56;;;;;;;3.55;2.00;;;;;;;17.05;65.67;100429.34;5094578;28;20058;-89
2023/04/23 10:27:23;;;;;;;4.10;1.77;;;;;;;17.20;65.32;100438.22;5093513;28;20027;-86
2023/04/23 10:29:48;;;;;;;4.75;1.90;;;;;;;17.37;66.08;100428.66;5092707;28;20035;-86
2023/04/23 10:32:15;;;;;;;3.63;1.70;;;;;;;17.49;64.98;100421.94;5093781;28;20028;-87
2023/04/23 10:34:41;;;;;;;2.55;1.70;;;;;;;17.64;64.86;100433.41;5093437;28;20103;-86
2023/04/23 10:37:07;;;;;;;4.70;1.70;;;;;;;17.62;65.45;100417.75;5092584;28;20067;-90
2023/04/23 10:39:34;;;;;;;2.42;1.70;;;;;;;17.67;65.52;100426.25;5093510;28;20406;-90
2023/04/23 10:42:00;;;;;;;1.98;1.50;;;;;;;17.70;66.91;100415.56;5094411;28;20472;-86
2023/04/23 10:44:36;;;;;;;2.80;1.70;;;;;;;17.74;66.12;100405.75;5091580;28;20424;-86
2023/04/23 10:47:03;;;;;;;2.38;1.70;;;;;;;17.63;63.55;100408.97;5093443;28;20422;-87
2023/04/23 10:49:30;;;;;;;;;;;;;;;17.57;64.69;100412.75;5093621;28;20024;-87
2023/04/23 10:52:03;;;;;;;5.88;2.13;;;;;;;17.44;63.09;100407.31;5092501;28;20106;-87
2023/04/23 10:54:31;;;;;;;2.17;1.80;;;;;;;17.38;66.10;100402.34;5093304;28;20483;-87
2023/04/23 10:57:02;;;;;;;4.72;1.60;;;;;;;17.44;65.62;100404.69;5093570;28;20024;-87
2023/04/23 10:59:29;;;;;;;3.78;1.80;;;;;;;17.45;65.76;100393.22;5092191;28;20106;-86
2023/04/23 11:01:58;;;;;;;2.22;1.90;;;;;;;17.59;63.93;100396.91;5093244;28;20020;-87
2023/04/23 11:04:28;;;;;;;2.83;1.90;;;;;;;17.72;62.81;100386.66;5092852;28;20031;-87
2023/04/23 11:07:07;;;;;;;3.15;1.98;;;;;;;17.80;64.58;100386.22;5092416;28;20086;-87
2023/04/23 11:09:44;;;;;;;2.85;1.75;;;;;;;17.87;65.01;100380.56;5093201;28;20368;-87
2023/04/23 11:12:31;;;;;;;1.77;1.63;;;;;;;17.92;64.80;100382.94;5092810;28;20115;-86
2023/04/23 11:15:01;;;;;;;1.65;1.55;;;;;;;17.89;64.74;100373.47;5093202;28;20066;-89
2023/04/23 11:17:32;;;;;;;2.25;1.50;;;;;;;17.83;64.61;100372.94;5095151;28;20114;-95
2023/04/23 11:20:12;;;;;;;1.77;1.40;;;;;;;17.80;61.62;100370.47;5092958;28;20051;-86
2023/04/23 11:22:48;;;;;;;2.00;1.50;;;;;;;17.74;64.61;100366.41;5092554;28;20036;-82
2023/04/23 11:25:19;;;;;;;2.88;1.90;;;;;;;17.73;63.77;100364.72;5092880;28;20028;-83